Time;durP1;ratioP1;P1;durP2;ratioP2;P2;SDS_P1;SDS_P2;PMS_P1;PMS_P2;Temp;Humidity;BMP_temperature;BMP_pressure;BME280_temperature;BME280_humidity;BME280_pressure;Samples;Min_cycle;Max_cycle;Signal;HPM_P1;HPM_P2
2022/04/16 00:00:09;;;;;;;14.63;9.65;;;;;;;8.63;84.29;103229.06;5094200;28;20054;-72
2022/04/16 00:02:34;;;;;;;12.35;9.88;;;;;;;8.61;84.23;103228.25;5058965;28;20024;-72
2022/04/16 00:05:00;;;;;;;13.35;9.73;;;;;;;8.59;84.06;103224.81;5093878;28;20534;-72
2022/04/16 00:07:25;;;;;;;17.70;9.63;;;;;;;8.57;84.46;103224.88;5075665;28;20031;-71
2022/04/16 00:09:51;;;;;;;14.65;10.02;;;;;;;8.56;84.72;103227.59;5093474;28;20032;-72
2022/04/16 00:12:16;;;;;;;13.68;9.45;;;;;;;8.54;84.78;103219.72;5093529;28;20032;-71
2022/04/16 00:14:42;;;;;;;11.75;9.82;;;;;;;8.54;85.00;103224.13;5094238;28;20403;-71
2022/04/16 00:17:07;;;;;;;14.15;9.68;;;;;;;8.50;84.43;103225.22;5093813;28;20114;-73
2022/04/16 00:19:33;;;;;;;11.35;9.05;;;;;;;8.49;84.42;103227.00;5093327;28;20440;-72
2022/04/16 00:22:02;;;;;;;15.65;8.90;;;;;;;8.49;84.76;103228.78;5093919;28;20031;-72
2022/04/16 00:24:28;;;;;;;17.13;10.23;;;;;;;8.48;84.94;103225.28;5093633;28;20036;-72
2022/04/16 00:26:54;;;;;;;15.50;10.00;;;;;;;8.47;85.22;103227.06;5093431;28;20032;-72
2022/04/16 00:29:19;;;;;;;16.05;10.07;;;;;;;8.46;85.72;103235.09;5075467;28;20035;-72
2022/04/16 00:31:48;;;;;;;14.27;10.50;;;;;;;8.45;85.75;103233.38;5093928;28;20032;-72
2022/04/16 00:34:14;;;;;;;16.05;10.25;;;;;;;8.44;85.90;103231.66;5093492;28;20071;-72
2022/04/16 00:36:41;;;;;;;18.73;10.63;;;;;;;8.42;86.25;103236.13;5093367;28;20448;-75
2022/04/16 00:39:07;;;;;;;14.98;10.25;;;;;;;8.40;86.40;103228.22;5093438;28;20032;-72
2022/04/16 00:41:33;;;;;;;16.40;10.55;;;;;;;8.39;86.13;103238.91;5075455;28;20036;-72
2022/04/16 00:43:58;;;;;;;12.15;10.27;;;;;;;8.38;86.63;103237.19;5093413;28;20522;-71
2022/04/16 00:46:23;;;;;;;15.63;10.38;;;;;;;8.36;86.50;103242.56;5093511;28;20036;-71
2022/04/16 00:48:49;;;;;;;12.95;10.13;;;;;;;8.34;86.48;103239.09;5059060;28;20032;-71
2022/04/16 00:51:15;;;;;;;13.48;9.77;;;;;;;8.32;86.00;103237.47;5093884;28;20401;-71
2022/04/16 00:53:41;;;;;;;14.75;10.40;;;;;;;8.31;86.41;103244.53;5093353;28;20123;-71
2022/04/16 00:56:08;;;;;;;19.40;10.63;;;;;;;8.28;86.49;103240.25;5093703;28;20081;-72
2022/04/16 00:58:33;;;;;;;15.18;10.70;;;;;;;8.27;86.35;103235.88;5075080;28;20043;-72
2022/04/16 01:00:58;;;;;;;15.57;11.13;;;;;;;8.27;86.46;103227.91;5092877;28;20032;-72
2022/04/16 01:03:26;;;;;;;14.55;10.90;;;;;;;8.26;86.81;103233.28;5093242;28;20050;-71
2022/04/16 01:05:51;;;;;;;13.90;10.48;;;;;;;8.25;87.03;103237.69;5093095;28;20032;-71
2022/04/16 01:08:19;;;;;;;13.95;11.00;;;;;;;8.24;86.39;103230.69;5093180;28;20123;-71
2022/04/16 01:10:45;;;;;;;20.05;10.48;;;;;;;8.22;86.24;103227.22;5075792;28;20036;-74
2022/04/16 01:13:11;;;;;;;14.25;11.45;;;;;;;8.22;85.97;103234.31;5075041;28;20461;-71
2022/04/16 01:15:39;;;;;;;15.93;10.57;;;;;;;8.22;86.27;103234.31;5093386;28;20035;-70
2022/04/16 01:18:05;;;;;;;15.73;11.38;;;;;;;8.21;86.22;103232.59;5093513;28;20494;-71
2022/04/16 01:20:35;;;;;;;17.60;12.02;;;;;;;8.19;85.93;103232.66;5093261;28;20085;-71
2022/04/16 01:23:02;;;;;;;14.82;11.45;;;;;;;8.19;85.11;103231.81;5092866;28;20036;-72
2022/04/16 01:25:27;;;;;;;15.63;12.20;;;;;;;8.18;85.16;103225.66;5092657;28;20553;-72
2022/04/16 01:27:56;;;;;;;14.95;12.10;;;;;;;8.17;84.64;103220.41;5092658;28;20110;-71
2022/04/16 01:30:22;;;;;;;17.50;12.63;;;;;;;8.13;84.67;103219.66;5093081;28;20086;-71
2022/04/16 01:32:52;;;;;;;15.27;12.52;;;;;;;8.10;84.53;103225.09;5096565;28;20108;-76
2022/04/16 01:35:18;;;;;;;16.60;11.85;;;;;;;8.05;83.98;103220.00;5078465;28;20078;-71
2022/04/16 01:37:44;;;;;;;15.27;11.70;;;;;;;8.02;83.89;103224.56;5097334;28;20364;-71
2022/04/16 01:40:12;;;;;;;15.48;11.65;;;;;;;7.99;83.98;103222.06;5096254;28;20024;-70
2022/04/16 01:42:37;;;;;;;17.30;12.45;;;;;;;7.93;83.85;103221.38;5097127;28;20024;-71
2022/04/16 01:45:05;;;;;;;18.90;12.23;;;;;;;7.90;84.47;103225.94;5078507;28;20177;-71
2022/04/16 01:47:33;;;;;;;16.50;12.40;;;;;;;7.86;84.60;103216.38;5096013;28;20142;-71
2022/04/16 01:49:59;;;;;;;17.15;13.20;;;;;;;7.81;84.35;103213.94;5096475;28;20208;-71
2022/04/16 01:52:24;;;;;;;18.40;12.25;;;;;;;7.75;84.51;103222.97;5078164;28;20107;-71
2022/04/16 01:54:51;;;;;;;19.27;12.07;;;;;;;7.68;84.27;103220.66;5095524;28;20028;-78
2022/04/16 01:57:20;;;;;;;15.93;12.05;;;;;;;7.60;84.01;103218.31;5094532;28;20439;-75
2022/04/16 01:59:49;;;;;;;14.77;11.30;;;;;;;7.50;84.54;103216.94;5094528;28;20108;-75
2022/04/16 02:02:15;;;;;;;14.60;11.52;;;;;;;7.38;84.59;103227.09;5094740;28;20024;-75
2022/04/16 02:04:41;;;;;;;17.92;12.70;;;;;;;7.26;85.09;103229.38;5094248;28;20028;-75
2022/04/16 02:07:07;;;;;;;15.68;12.02;;;;;;;7.13;85.22;103228.97;5094200;28;20043;-74
2022/04/16 02:09:32;;;;;;;16.67;12.10;;;;;;;7.01;85.80;103232.94;5076032;28;20407;-74
2022/04/16 02:11:57;;;;;;;15.77;12.45;;;;;;;6.89;86.56;103237.75;5094286;28;20028;-75
2022/04/16 02:14:23;;;;;;;16.17;12.70;;;;;;;6.78;87.08;103239.94;5094198;28;20028;-74
2022/04/16 02:16:48;;;;;;;15.50;11.88;;;;;;;6.70;87.59;103250.81;5075587;28;20028;-74
2022/04/16 02:19:14;;;;;;;17.40;13.00;;;;;;;6.61;87.93;103242.31;5093679;28;20032;-74
2022/04/16 02:21:43;;;;;;;18.15;12.38;;;;;;;6.53;88.36;103245.25;5093873;28;20035;-75
2022/04/16 02:24:10;;;;;;;17.58;12.98;;;;;;;6.45;88.82;103252.56;5093938;28;20047;-74
2022/04/16 02:26:37;;;;;;;20.13;12.95;;;;;;;6.37;88.78;103254.63;5093912;28;20062;-74
2022/04/16 02:29:04;;;;;;;15.27;12.60;;;;;;;6.29;89.26;103253.09;5094113;28;20200;-74
2022/04/16 02:31:29;;;;;;;15.18;12.57;;;;;;;6.20;89.47;103256.06;5093560;28;20369;-74
2022/04/16 02:33:58;;;;;;;15.75;12.52;;;;;;;6.12;89.83;103255.44;5093542;28;20085;-76
2022/04/16 02:36:26;;;;;;;17.15;13.75;;;;;;;6.05;90.50;103261.88;5076067;28;20051;-73
2022/04/16 02:38:54;;;;;;;18.67;13.40;;;;;;;5.97;90.92;103268.25;5093486;28;20057;-74
2022/04/16 02:41:23;;;;;;;19.20;13.63;;;;;;;5.89;91.18;103264.09;5093251;28;20036;-75
2022/04/16 02:43:49;;;;;;;16.52;13.73;;;;;;;5.81;91.44;103273.13;5075346;28;20456;-75
2022/04/16 02:49:00;;;;;;;18.42;14.43;;;;;;;5.67;91.95;103279.75;5093556;28;20071;-74
2022/04/16 02:51:26;;;;;;;25.45;14.60;;;;;;;5.57;92.43;103280.03;5093451;28;20097;-74
2022/04/16 02:53:51;;;;;;;16.55;13.90;;;;;;;5.52;93.03;103284.59;5093590;28;20036;-74
2022/04/16 02:56:17;;;;;;;20.75;14.90;;;;;;;5.45;93.25;103283.91;5093155;28;20103;-74
2022/04/16 02:58:43;;;;;;;20.73;15.45;;;;;;;5.38;93.14;103286.78;5093321;28;20084;-74
2022/04/16 03:01:08;;;;;;;16.25;13.18;;;;;;;5.31;93.14;103288.72;5074851;28;20090;-75
2022/04/16 03:03:33;;;;;;;18.40;14.80;;;;;;;5.24;93.13;103295.09;5093104;28;20032;-74
2022/04/16 03:05:59;;;;;;;20.60;14.00;;;;;;;5.18;93.62;103290.00;5093322;28;20111;-77
2022/04/16 03:08:25;;;;;;;20.10;15.55;;;;;;;5.11;93.64;103289.31;5093600;28;20024;-74
2022/04/16 03:10:51;;;;;;;18.55;15.57;;;;;;;5.04;94.18;103285.13;5093023;28;20432;-74
2022/04/16 03:13:18;;;;;;;20.73;15.63;;;;;;;4.98;94.04;103282.66;5093053;28;20490;-74
2022/04/16 03:18:27;;;;;;;19.00;15.00;;;;;;;4.85;94.25;103279.47;5093502;28;20177;-75
2022/04/16 03:20:52;;;;;;;22.20;15.23;;;;;;;4.80;94.27;103276.97;5093246;28;20122;-74
2022/04/16 03:23:18;;;;;;;20.85;15.73;;;;;;;4.76;94.30;103273.56;5092517;28;20051;-74
2022/04/16 03:25:43;;;;;;;18.85;14.57;;;;;;;4.70;94.37;103276.38;5093057;28;20032;-75
2022/04/16 03:28:10;;;;;;;19.88;16.05;;;;;;;4.64;94.60;103275.66;5092634;28;20192;-75
2022/04/16 03:30:36;;;;;;;19.50;15.38;;;;;;;4.60;95.07;103282.78;5093204;28;20449;-74
2022/04/16 03:33:01;;;;;;;23.50;15.90;;;;;;;4.52;95.02;103277.72;5093027;28;20052;-77
2022/04/16 03:35:27;;;;;;;19.70;14.90;;;;;;;4.47;94.97;103284.88;5092527;28;20070;-76
2022/04/16 03:37:54;;;;;;;20.30;16.25;;;;;;;4.42;95.00;103286.78;5092719;28;20067;-75
2022/04/16 03:40:20;;;;;;;20.58;16.00;;;;;;;4.37;95.05;103281.63;5092597;28;20036;-73
2022/04/16 03:42:50;;;;;;;23.02;17.02;;;;;;;4.33;95.37;103285.22;5092694;28;20024;-74
2022/04/16 03:45:20;;;;;;;23.92;16.55;;;;;;;4.29;95.27;103288.84;5092565;28;20042;-74
2022/04/16 03:47:47;;;;;;;25.42;17.30;;;;;;;4.25;95.68;103284.53;5093307;28;20044;-74
2022/04/16 03:50:13;;;;;;;23.65;18.67;;;;;;;4.23;95.64;103287.22;5092376;28;20047;-74
2022/04/16 03:52:43;;;;;;;23.90;17.40;;;;;;;4.18;95.63;103289.13;5092999;28;20036;-72
2022/04/16 04:00:45;;;;;;;23.48;17.95;;;;;;;4.03;96.28;103300.88;5092381;28;20503;-75
2022/04/16 04:03:14;;;;;;;22.10;17.95;;;;;;;3.96;95.68;103295.81;5092359;28;20032;-75
2022/04/16 04:05:40;;;;;;;23.38;17.65;;;;;;;3.94;95.92;103300.22;5091976;28;20063;-73
2022/04/16 04:08:07;;;;;;;22.60;16.25;;;;;;;3.88;95.54;103301.22;5092176;28;20040;-77
2022/04/16 04:10:33;;;;;;;28.90;18.75;;;;;;;3.83;95.79;103306.59;5092395;28;20039;-74
2022/04/16 04:12:58;;;;;;;27.45;19.08;;;;;;;3.83;96.21;103308.38;5092162;28;20141;-75
2022/04/16 04:15:24;;;;;;;22.02;16.58;;;;;;;3.79;96.45;103310.22;5092292;28;20418;-75
2022/04/16 04:17:50;;;;;;;23.25;16.00;;;;;;;3.74;96.51;103309.44;5091935;28;20089;-74
2022/04/16 04:20:16;;;;;;;24.45;17.75;;;;;;;3.69;96.19;103308.69;5092151;28;20028;-74
2022/04/16 04:22:41;;;;;;;23.90;17.48;;;;;;;3.64;96.76;103310.53;5091783;28;20399;-75
2022/04/16 04:25:07;;;;;;;26.00;18.55;;;;;;;3.59;96.86;103315.06;5091903;28;20028;-74
2022/04/16 04:27:32;;;;;;;25.85;18.25;;;;;;;3.54;97.06;103317.78;5091798;28;20472;-74
2022/04/16 04:30:01;;;;;;;23.50;17.10;;;;;;;3.48;97.09;103320.56;5091892;28;20077;-74
2022/04/16 04:32:29;;;;;;;25.02;17.92;;;;;;;3.44;96.76;103324.16;5091819;28;20038;-74
2022/04/16 04:34:55;;;;;;;18.52;15.25;;;;;;;3.40;96.55;103331.22;5091692;28;20036;-74
2022/04/16 04:37:20;;;;;;;22.60;16.58;;;;;;;3.38;96.57;103329.53;5091307;28;20043;-74
2022/04/16 04:39:46;;;;;;;23.40;16.65;;;;;;;3.34;96.96;103331.34;5091518;28;20173;-74
2022/04/16 04:42:11;;;;;;;25.15;18.67;;;;;;;3.31;97.21;103328.78;5091513;28;20028;-77
2022/04/16 04:44:36;;;;;;;24.58;17.60;;;;;;;3.28;97.20;103331.47;5091248;28;20326;-75
2022/04/16 04:47:02;;;;;;;25.65;20.30;;;;;;;3.26;97.42;103336.78;5091217;28;20048;-74
2022/04/16 04:49:28;;;;;;;28.27;20.65;;;;;;;3.26;98.06;103339.41;5091426;28;20044;-74
2022/04/16 04:51:53;;;;;;;25.73;17.98;;;;;;;3.25;98.39;103336.81;5091586;28;20046;-74
2022/04/16 04:54:18;;;;;;;28.00;18.55;;;;;;;3.25;98.67;103332.41;5073243;28;20049;-74
2022/04/16 04:56:44;;;;;;;30.23;20.42;;;;;;;3.24;98.96;103340.31;5091273;28;20028;-75
2022/04/16 04:59:10;;;;;;;28.08;19.92;;;;;;;3.24;99.55;103335.94;5091432;28;20038;-75
2022/04/16 05:01:35;;;;;;;27.30;19.15;;;;;;;3.24;99.70;103332.44;5091315;28;20034;-75
2022/04/16 05:04:01;;;;;;;34.10;21.15;;;;;;;3.24;99.79;103340.31;5091459;28;20387;-75
2022/04/16 05:06:27;;;;;;;30.90;20.77;;;;;;;3.32;100.00;103343.69;5094524;28;20056;-75
2022/04/16 05:08:52;;;;;;;27.30;19.65;;;;;;;3.33;100.00;103343.66;5095642;28;20028;-75
2022/04/16 05:11:18;;;;;;;33.00;22.25;;;;;;;3.36;100.00;103340.09;5076876;28;20025;-75
2022/04/16 05:13:43;;;;;;;29.40;20.02;;;;;;;3.38;100.00;103356.72;5095508;28;20439;-74
2022/04/16 05:16:12;;;;;;;32.40;21.77;;;;;;;3.42;100.00;103355.75;5095601;28;20484;-74
2022/04/16 05:18:38;;;;;;;31.27;21.00;;;;;;;3.45;100.00;103360.06;5095627;28;20119;-75
2022/04/16 05:21:03;;;;;;;29.60;20.77;;;;;;;3.48;100.00;103368.78;5094976;28;20028;-74
2022/04/16 05:23:29;;;;;;;33.83;22.63;;;;;;;3.52;100.00;103362.59;5095419;28;20040;-74
2022/04/16 05:25:54;;;;;;;31.67;20.55;;;;;;;3.59;100.00;103367.72;5095377;28;20392;-74
2022/04/16 05:28:19;;;;;;;35.13;21.65;;;;;;;3.64;100.00;103366.72;5095012;28;20032;-74
2022/04/16 05:30:48;;;;;;;30.13;22.15;;;;;;;3.74;100.00;103377.06;5095554;28;20060;-73
2022/04/16 05:35:58;;;;;;;35.60;22.90;;;;;;;3.88;100.00;103375.88;5095360;28;20089;-74
2022/04/16 05:38:23;;;;;;;32.80;22.67;;;;;;;3.95;100.00;103381.00;5095218;28;20036;-74
2022/04/16 05:40:49;;;;;;;44.25;23.40;;;;;;;4.04;100.00;103380.78;5095524;28;20123;-74
2022/04/16 05:43:14;;;;;;;31.30;22.35;;;;;;;4.13;100.00;103380.56;5095771;28;20079;-75
2022/04/16 05:45:39;;;;;;;40.63;26.15;;;;;;;4.22;100.00;103379.50;5095971;28;20431;-74
2022/04/16 05:48:05;;;;;;;40.88;25.50;;;;;;;4.34;100.00;103380.97;5096173;28;20040;-74
2022/04/16 05:50:31;;;;;;;33.88;23.70;;;;;;;4.46;100.00;103385.09;5095565;28;20036;-74
2022/04/16 05:52:57;;;;;;;35.83;22.58;;;;;;;4.59;100.00;103386.53;5077478;28;20036;-74
2022/04/16 05:55:23;;;;;;;36.60;22.80;;;;;;;4.72;100.00;103382.69;5095212;28;20050;-75
2022/04/16 05:57:48;;;;;;;37.75;23.48;;;;;;;4.86;100.00;103386.75;5095477;28;20118;-74
2022/04/16 06:00:14;;;;;;;35.67;22.27;;;;;;;5.00;100.00;103389.91;5095513;28;20024;-74
2022/04/16 06:02:41;;;;;;;35.50;22.02;;;;;;;5.14;100.00;103389.53;5095338;28;20024;-74
2022/04/16 06:05:06;;;;;;;34.58;22.30;;;;;;;5.27;100.00;103387.44;5095359;28;20054;-74
2022/04/16 06:07:32;;;;;;;32.70;21.48;;;;;;;5.40;100.00;103394.06;5095339;28;20028;-75
2022/04/16 06:09:57;;;;;;;32.67;21.67;;;;;;;5.53;100.00;103394.59;5095416;28;20439;-75
2022/04/16 06:12:26;;;;;;;28.67;19.83;;;;;;;5.63;100.00;103396.06;5095161;28;20079;-78
2022/04/16 06:14:52;;;;;;;28.52;19.48;;;;;;;5.75;100.00;103402.78;5095308;28;20060;-74
2022/04/16 06:17:17;;;;;;;28.38;18.77;;;;;;;5.87;100.00;103403.31;5094604;28;20077;-74
2022/04/16 06:19:42;;;;;;;25.30;18.30;;;;;;;5.96;100.00;103403.06;5095632;28;20493;-74
2022/04/16 06:22:11;;;;;;;29.13;18.70;;;;;;;6.07;99.82;103406.25;5094712;28;20051;-75
2022/04/16 06:24:41;;;;;;;31.55;19.35;;;;;;;6.16;98.90;103408.63;5095277;28;20028;-74
2022/04/16 06:27:06;;;;;;;26.17;19.20;;;;;;;6.29;98.01;103411.75;5095261;28;20062;-74
2022/04/16 06:29:32;;;;;;;27.63;19.20;;;;;;;6.43;97.48;103410.44;5077328;28;20056;-75
2022/04/16 06:31:58;;;;;;;28.73;18.95;;;;;;;6.56;96.75;103419.72;5095002;28;20111;-75
2022/04/16 06:34:23;;;;;;;24.63;17.92;;;;;;;6.65;95.64;103422.06;5077424;28;20478;-76
2022/04/16 06:36:50;;;;;;;27.70;18.00;;;;;;;6.73;94.44;103427.09;5060334;28;20043;-75
2022/04/16 06:39:15;;;;;;;27.20;18.23;;;;;;;6.81;93.91;103418.94;5094805;28;20115;-76
2022/04/16 06:41:40;;;;;;;26.38;17.98;;;;;;;6.93;93.53;103422.94;5094396;28;20111;-75
2022/04/16 06:44:06;;;;;;;21.83;17.88;;;;;;;7.02;93.45;103418.19;5095275;28;20032;-75
2022/04/16 06:46:35;;;;;;;29.85;18.98;;;;;;;7.14;92.82;103418.69;5076842;28;20117;-75
2022/04/16 06:49:00;;;;;;;25.95;17.92;;;;;;;7.28;92.65;103426.13;5095216;28;20028;-76
2022/04/16 06:51:26;;;;;;;24.23;18.25;;;;;;;7.34;91.71;103420.63;5094584;28;20426;-77
2022/04/16 06:53:51;;;;;;;31.35;17.95;;;;;;;7.47;91.51;103424.56;5094877;28;20038;-73
2022/04/16 06:56:16;;;;;;;24.25;17.73;;;;;;;7.59;91.13;103421.44;5094554;28;20039;-75
2022/04/16 06:58:42;;;;;;;25.80;18.70;;;;;;;7.70;90.43;103425.50;5076027;28;20032;-74
2022/04/16 07:01:07;;;;;;;24.48;18.60;;;;;;;7.88;90.87;103430.13;5094568;28;20042;-72
2022/04/16 07:03:33;;;;;;;25.00;18.35;;;;;;;7.98;89.94;103424.47;5093915;28;20519;-75
2022/04/16 07:05:58;;;;;;;22.88;17.48;;;;;;;8.12;89.50;103427.44;5094537;28;20024;-72
2022/04/16 07:08:23;;;;;;;27.38;18.20;;;;;;;8.23;88.78;103429.69;5093915;28;20344;-75
2022/04/16 07:10:49;;;;;;;24.95;18.98;;;;;;;8.30;87.94;103429.38;5093962;28;20471;-78
2022/04/16 07:13:14;;;;;;;26.13;18.42;;;;;;;8.45;87.39;103427.94;5093179;28;20032;-77
2022/04/16 07:15:39;;;;;;;24.90;18.63;;;;;;;8.59;86.65;103423.84;5074738;28;20032;-75
2022/04/16 07:18:07;;;;;;;30.85;18.88;;;;;;;8.70;85.68;103429.56;5075703;28;20048;-72
2022/04/16 07:20:32;;;;;;;24.08;19.08;;;;;;;8.88;85.16;103432.38;5075064;28;20028;-78
2022/04/16 07:22:58;;;;;;;27.67;19.65;;;;;;;8.93;84.87;103428.63;5093298;28;20072;-74
2022/04/16 07:25:23;;;;;;;28.13;19.60;;;;;;;9.05;84.33;103426.38;5093903;28;20040;-73
2022/04/16 07:27:48;;;;;;;25.10;19.02;;;;;;;9.18;84.05;103427.53;5093023;28;20121;-74
2022/04/16 07:30:14;;;;;;;26.77;18.98;;;;;;;9.35;83.78;103432.13;5093559;28;20098;-73
2022/04/16 07:32:39;;;;;;;25.00;18.52;;;;;;;9.44;82.90;103431.72;5093343;28;20040;-73
2022/04/16 07:35:08;;;;;;;23.85;19.02;;;;;;;9.57;81.67;103428.50;5074915;28;20036;-73
2022/04/16 07:37:34;;;;;;;24.23;17.33;;;;;;;9.76;80.91;103428.53;5093145;28;20039;-78
2022/04/16 07:39:59;;;;;;;25.33;18.60;;;;;;;9.89;80.48;103432.34;5075184;28;20357;-74
2022/04/16 07:42:30;;;;;;;24.35;18.35;;;;;;;10.04;80.43;103430.78;5075869;28;20423;-76
2022/04/16 07:44:55;;;;;;;26.02;18.95;;;;;;;10.32;80.11;103437.47;5093962;28;20461;-76
2022/04/16 07:47:20;;;;;;;25.48;18.13;;;;;;;10.39;76.65;103430.94;5093963;28;20044;-76
2022/04/16 07:49:46;;;;;;;25.30;18.65;;;;;;;10.57;77.44;103432.69;5075645;28;20122;-77
2022/04/16 07:52:11;;;;;;;24.17;17.60;;;;;;;10.75;76.76;103432.72;5075449;28;20036;-77
2022/04/16 07:54:37;;;;;;;27.35;18.45;;;;;;;10.87;76.30;103437.44;5093523;28;20131;-75
2022/04/16 07:57:06;;;;;;;22.85;17.42;;;;;;;11.04;76.49;103431.22;5093524;28;20036;-74
2022/04/16 07:59:32;;;;;;;24.73;17.95;;;;;;;11.18;74.44;103419.00;5093717;28;20046;-76
2022/04/16 08:01:58;;;;;;;23.88;18.67;;;;;;;11.40;74.08;103416.06;5093993;28;20031;-70
2022/04/16 08:04:23;;;;;;;27.20;18.17;;;;;;;11.74;72.94;103420.44;5093025;28;20135;-73
2022/04/16 08:06:49;;;;;;;24.75;18.02;;;;;;;11.75;72.90;103422.16;5092881;28;20464;-74
2022/04/16 08:09:14;;;;;;;27.27;18.75;;;;;;;12.16;72.80;103415.50;5093353;28;20048;-74
2022/04/16 08:11:40;;;;;;;24.98;18.15;;;;;;;12.57;70.39;103422.09;5092879;28;20081;-75
2022/04/16 08:14:06;;;;;;;23.77;18.08;;;;;;;12.62;68.00;103417.34;5093219;28;20027;-73
2022/04/16 08:16:32;;;;;;;20.80;16.55;;;;;;;13.13;67.61;103420.53;5093044;28;20092;-76
2022/04/16 08:18:57;;;;;;;26.63;19.35;;;;;;;13.61;65.28;103427.47;5093049;28;20415;-78
2022/04/16 08:21:25;;;;;;;24.52;17.90;;;;;;;13.83;63.91;103419.81;5093140;28;20111;-76
2022/04/16 08:26:42;;;;;;;23.65;17.55;;;;;;;14.06;62.36;103422.81;5061122;28;20040;-75
2022/04/16 08:29:08;;;;;;;26.23;18.30;;;;;;;13.97;61.80;103426.94;5092821;28;20039;-75
2022/04/16 08:31:33;;;;;;;23.70;18.33;;;;;;;14.20;62.54;103435.34;5092852;28;20067;-75
2022/04/16 08:33:59;;;;;;;24.13;18.38;;;;;;;14.36;61.93;103436.06;5074025;28;20463;-75
2022/04/16 08:36:25;;;;;;;22.02;17.58;;;;;;;14.11;62.82;103432.28;5092443;28;20039;-76
2022/04/16 08:38:51;;;;;;;21.45;17.73;;;;;;;13.70;62.43;103430.44;5092467;28;20032;-76
2022/04/16 08:41:16;;;;;;;21.95;17.23;;;;;;;13.53;63.94;103433.31;5092175;28;20467;-75
2022/04/16 08:43:42;;;;;;;20.70;16.83;;;;;;;13.62;64.07;103434.56;5092789;28;20020;-80
2022/04/16 08:46:08;;;;;;;19.92;16.08;;;;;;;13.75;64.43;103432.84;5092505;28;20385;-73
2022/04/16 08:48:35;;;;;;;24.17;17.52;;;;;;;13.86;63.15;103430.31;5093036;28;20050;-74
2022/04/16 08:51:01;;;;;;;20.02;16.55;;;;;;;14.09;62.78;103436.00;5092450;28;20070;-74
2022/04/16 08:53:26;;;;;;;20.65;16.20;;;;;;;14.63;60.45;103433.38;5092533;28;20115;-74
2022/04/16 08:55:52;;;;;;;21.45;15.80;;;;;;;15.15;59.81;103436.16;5092390;28;20031;-74
2022/04/16 08:58:17;;;;;;;19.23;16.52;;;;;;;15.33;58.46;103428.66;5092396;28;20037;-74
2022/04/16 09:00:42;;;;;;;20.02;15.73;;;;;;;16.10;55.68;103438.44;5092075;28;20032;-79
2022/04/16 09:03:09;;;;;;;19.92;15.13;;;;;;;16.86;52.77;103431.84;5092418;28;20115;-74
2022/04/16 09:05:35;;;;;;;19.85;15.30;;;;;;;17.20;52.01;103429.25;5092425;28;20028;-74
2022/04/16 09:08:03;;;;;;;19.20;15.93;;;;;;;18.22;49.69;103431.91;5092629;28;20039;-74
2022/04/16 09:10:30;;;;;;;18.50;15.70;;;;;;;19.21;45.57;103431.69;5092358;28;20089;-74
2022/04/16 09:12:58;;;;;;;17.65;15.45;;;;;;;19.46;44.77;103424.16;5092252;28;20032;-72
2022/04/16 09:15:25;;;;;;;19.55;15.00;;;;;;;18.92;45.33;103428.84;5091844;28;20074;-74
2022/04/16 09:18:07;;;;;;;17.35;14.88;;;;;;;18.46;48.09;103430.84;5092001;28;20036;-73
2022/04/16 09:20:40;;;;;;;21.33;14.57;;;;;;;19.48;44.93;103423.03;5092093;28;20036;-73
2022/04/16 09:23:19;;;;;;;15.88;14.18;;;;;;;19.62;44.16;103424.50;5091773;28;20118;-74
2022/04/16 09:25:46;;;;;;;18.52;14.55;;;;;;;20.16;42.33;103424.25;5093023;28;20028;-78
2022/04/16 09:28:14;;;;;;;20.15;15.00;;;;;;;20.14;42.39;103418.13;5092098;28;20119;-74
2022/04/16 09:30:57;;;;;;;17.27;12.98;;;;;;;20.41;41.29;103418.31;5074212;28;20066;-74
2022/04/16 09:33:23;;;;;;;16.50;13.45;;;;;;;20.07;41.70;103423.25;5091911;28;20020;-74
2022/04/16 09:35:54;;;;;;;20.17;13.40;;;;;;;20.65;41.95;103408.06;5092087;28;20042;-76
2022/04/16 09:38:19;;;;;;;15.80;13.00;;;;;;;21.22;39.48;103422.47;5092235;28;20039;-73
2022/04/16 09:40:46;;;;;;;14.90;12.57;;;;;;;21.16;39.41;103414.97;5092899;28;20468;-73
2022/04/16 09:43:12;;;;;;;17.38;13.63;;;;;;;19.33;43.00;103417.16;5092261;28;20028;-73
2022/04/16 09:45:39;;;;;;;15.07;12.85;;;;;;;20.46;41.14;103417.03;5092180;28;20495;-73
2022/04/16 09:48:09;;;;;;;20.15;12.27;;;;;;;20.92;39.60;103407.34;5091593;28;20047;-71
2022/04/16 09:50:37;;;;;;;17.50;14.00;;;;;;;20.64;40.75;103403.63;5092086;28;20040;-73
2022/04/16 09:53:04;;;;;;;16.20;13.07;;;;;;;20.76;41.15;103406.06;5094498;28;20032;-76
2022/04/16 09:55:29;;;;;;;16.40;12.63;;;;;;;21.40;39.98;103403.59;5095539;28;20119;-77
2022/04/16 09:57:59;;;;;;;16.52;12.77;;;;;;;21.63;38.80;103405.94;5060332;28;20086;-82
2022/04/16 10:00:26;;;;;;;14.75;12.23;;;;;;;22.78;35.90;103417.09;5095366;28;20142;-78
2022/04/16 10:02:53;;;;;;;14.15;12.65;;;;;;;21.20;38.83;103410.97;5095774;28;20126;-79
2022/04/16 10:05:21;;;;;;;15.00;11.60;;;;;;;20.94;40.11;103414.31;5095567;28;20345;-72
2022/04/16 10:07:47;;;;;;;15.80;12.27;;;;;;;20.83;40.31;103417.16;5095290;28;20055;-72
2022/04/16 10:10:19;;;;;;;17.30;13.45;;;;;;;20.79;40.26;103415.75;5095646;28;20067;-77
2022/04/16 10:12:59;;;;;;;13.45;11.93;;;;;;;20.18;40.79;103416.84;5095484;28;20032;-73
2022/04/16 10:15:33;;;;;;;16.90;13.50;;;;;;;19.50;43.66;103407.56;5095585;28;20032;-75
2022/04/16 10:17:58;;;;;;;14.25;12.52;;;;;;;20.30;43.26;103399.50;5095634;28;20024;-74
2022/04/16 10:20:25;;;;;;;14.65;12.57;;;;;;;21.22;39.64;103403.53;5095478;28;20375;-73
2022/04/16 10:22:55;;;;;;;18.83;12.25;;;;;;;19.86;42.21;103405.28;5094640;28;20040;-79
2022/04/16 10:25:36;;;;;;;13.15;11.57;;;;;;;20.04;42.05;103410.03;5095049;28;20097;-73
2022/04/16 10:28:09;;;;;;;12.73;10.95;;;;;;;21.27;39.33;103403.09;5094741;28;20090;-73
2022/04/16 10:30:49;;;;;;;13.05;10.73;;;;;;;22.50;36.83;103411.81;5095465;28;20097;-73
2022/04/16 10:33:22;;;;;;;14.90;11.82;;;;;;;22.20;36.19;103411.16;5095340;28;20020;-73
2022/04/16 10:36:01;;;;;;;12.23;10.30;;;;;;;22.43;37.23;103419.72;5095401;28;20032;-73
2022/04/16 10:38:34;;;;;;;12.77;10.77;;;;;;;22.46;34.38;103416.69;5095308;28;20081;-74
2022/04/16 10:41:09;;;;;;;9.65;8.45;;;;;;;20.31;37.56;103405.78;5094461;28;20529;-75
2022/04/16 10:43:35;;;;;;;10.20;8.57;;;;;;;20.17;38.58;103415.13;5095238;28;20080;-75
2022/04/16 10:46:03;;;;;;;9.38;8.32;;;;;;;20.72;37.25;103409.19;5094596;28;20115;-76
2022/04/16 10:48:32;;;;;;;10.57;8.77;;;;;;;20.88;36.58;103404.03;5094654;28;20107;-77
2022/04/16 10:50:59;;;;;;;10.63;9.52;;;;;;;19.43;40.23;103406.38;5076308;28;20046;-75
2022/04/16 10:53:35;;;;;;;12.63;10.60;;;;;;;19.17;42.95;103406.84;5094403;28;20384;-74
2022/04/16 10:56:14;;;;;;;9.82;8.57;;;;;;;19.85;40.59;103406.25;5094740;28;20057;-76
2022/04/16 10:59:00;;;;;;;7.47;6.18;;;;;;;21.26;35.58;103399.53;5094874;28;20125;-73
2022/04/16 11:01:27;;;;;;;7.93;6.57;;;;;;;22.73;34.79;103395.03;5094280;28;20046;-75
2022/04/16 11:03:54;;;;;;;9.20;8.25;;;;;;;22.71;36.45;103396.03;5093915;28;20032;-74
2022/04/16 11:06:20;;;;;;;10.23;8.15;;;;;;;23.51;34.55;103383.28;5093786;28;20032;-75
2022/04/16 11:08:46;;;;;;;8.48;7.60;;;;;;;24.16;30.66;103398.09;5094088;28;20024;-78
2022/04/16 11:11:15;;;;;;;8.75;7.80;;;;;;;25.10;30.41;103398.56;5093856;28;20035;-75
2022/04/16 11:13:42;;;;;;;6.05;5.15;;;;;;;25.42;27.96;103392.16;5093700;28;20032;-73
2022/04/16 11:16:08;;;;;;;6.35;5.72;;;;;;;24.09;30.51;103392.47;5094416;28;20054;-73
2022/04/16 11:18:45;;;;;;;8.10;7.30;;;;;;;22.94;31.51;103398.22;5093624;28;20446;-75
2022/04/16 11:21:20;;;;;;;7.35;6.57;;;;;;;23.22;31.66;103389.94;5093806;28;20032;-75
2022/04/16 11:23:51;;;;;;;7.55;6.85;;;;;;;22.24;34.97;103387.31;5094290;28;20032;-76
2022/04/16 11:34:34;;;;;;;7.60;6.88;;;;;;;22.45;33.62;103387.88;5094088;28;20078;-74
2022/04/16 11:37:00;;;;;;;8.52;7.20;;;;;;;22.46;34.10;103388.72;5093841;28;20032;-85